sensor_id;sensor_type;location;lat;lon;timestamp;P1;durP1;ratioP1;P2;durP2;ratioP2
64560;SDS011;50960;46.838;16.838;2023-12-20T00:01:43;42.25;;;37.85;;
64560;SDS011;50960;46.838;16.838;2023-12-20T00:04:10;39.45;;;35.35;;
64560;SDS011;50960;46.838;16.838;2023-12-20T00:06:36;36.95;;;33.10;;
64560;SDS011;50960;46.838;16.838;2023-12-20T00:09:02;40.33;;;35.95;;
64560;SDS011;50960;46.838;16.838;2023-12-20T00:11:28;43.10;;;38.40;;
64560;SDS011;50960;46.838;16.838;2023-12-20T00:13:55;39.75;;;35.55;;
64560;SDS011;50960;46.838;16.838;2023-12-20T00:16:21;37.63;;;33.72;;
64560;SDS011;50960;46.838;16.838;2023-12-20T00:18:47;34.83;;;31.23;;
64560;SDS011;50960;46.838;16.838;2023-12-20T00:21:13;32.58;;;29.20;;
64560;SDS011;50960;46.838;16.838;2023-12-20T00:23:41;29.27;;;25.85;;
64560;SDS011;50960;46.838;16.838;2023-12-20T00:26:07;29.88;;;26.88;;
64560;SDS011;50960;46.838;16.838;2023-12-20T00:28:33;28.00;;;25.20;;
64560;SDS011;50960;46.838;16.838;2023-12-20T00:31:00;26.67;;;23.92;;
64560;SDS011;50960;46.838;16.838;2023-12-20T00:33:26;27.80;;;25.05;;
64560;SDS011;50960;46.838;16.838;2023-12-20T00:35:52;30.50;;;27.50;;
64560;SDS011;50960;46.838;16.838;2023-12-20T00:38:18;31.80;;;28.60;;
64560;SDS011;50960;46.838;16.838;2023-12-20T00:40:45;31.00;;;27.90;;
64560;SDS011;50960;46.838;16.838;2023-12-20T00:43:11;29.63;;;26.63;;
64560;SDS011;50960;46.838;16.838;2023-12-20T00:45:37;28.90;;;26.08;;
64560;SDS011;50960;46.838;16.838;2023-12-20T00:48:04;26.38;;;23.77;;
64560;SDS011;50960;46.838;16.838;2023-12-20T00:50:31;25.67;;;23.13;;
64560;SDS011;50960;46.838;16.838;2023-12-20T00:52:57;25.13;;;22.73;;
64560;SDS011;50960;46.838;16.838;2023-12-20T00:55:23;28.38;;;25.58;;
64560;SDS011;50960;46.838;16.838;2023-12-20T00:57:50;28.48;;;25.65;;
64560;SDS011;50960;46.838;16.838;2023-12-20T01:00:16;28.00;;;25.20;;
64560;SDS011;50960;46.838;16.838;2023-12-20T01:02:42;29.20;;;26.30;;
64560;SDS011;50960;46.838;16.838;2023-12-20T01:05:09;28.35;;;25.55;;
64560;SDS011;50960;46.838;16.838;2023-12-20T01:07:35;26.48;;;23.85;;
64560;SDS011;50960;46.838;16.838;2023-12-20T01:10:01;25.42;;;22.92;;
64560;SDS011;50960;46.838;16.838;2023-12-20T01:12:28;23.83;;;21.55;;
64560;SDS011;50960;46.838;16.838;2023-12-20T01:14:54;23.83;;;21.33;;
64560;SDS011;50960;46.838;16.838;2023-12-20T01:17:20;24.17;;;21.70;;
64560;SDS011;50960;46.838;16.838;2023-12-20T01:19:46;23.90;;;21.50;;
64560;SDS011;50960;46.838;16.838;2023-12-20T01:22:13;23.17;;;20.80;;
64560;SDS011;50960;46.838;16.838;2023-12-20T01:24:39;21.88;;;19.67;;
64560;SDS011;50960;46.838;16.838;2023-12-20T01:27:06;22.75;;;20.45;;
64560;SDS011;50960;46.838;16.838;2023-12-20T01:29:32;20.95;;;18.75;;
64560;SDS011;50960;46.838;16.838;2023-12-20T01:31:58;20.05;;;18.15;;
64560;SDS011;50960;46.838;16.838;2023-12-20T01:34:24;20.02;;;18.02;;
64560;SDS011;50960;46.838;16.838;2023-12-20T01:36:51;20.05;;;18.15;;
64560;SDS011;50960;46.838;16.838;2023-12-20T01:39:17;20.50;;;18.50;;
64560;SDS011;50960;46.838;16.838;2023-12-20T01:41:43;21.17;;;19.08;;
64560;SDS011;50960;46.838;16.838;2023-12-20T01:44:10;20.42;;;18.45;;
64560;SDS011;50960;46.838;16.838;2023-12-20T01:46:37;20.80;;;18.80;;
64560;SDS011;50960;46.838;16.838;2023-12-20T01:49:03;21.33;;;19.30;;
64560;SDS011;50960;46.838;16.838;2023-12-20T01:51:30;22.63;;;20.48;;
64560;SDS011;50960;46.838;16.838;2023-12-20T01:53:57;22.58;;;20.48;;
64560;SDS011;50960;46.838;16.838;2023-12-20T01:56:25;31.45;;;28.08;;
64560;SDS011;50960;46.838;16.838;2023-12-20T01:58:54;39.80;;;34.15;;
64560;SDS011;50960;46.838;16.838;2023-12-20T02:01:22;39.35;;;33.42;;
64560;SDS011;50960;46.838;16.838;2023-12-20T02:03:48;38.13;;;33.47;;
64560;SDS011;50960;46.838;16.838;2023-12-20T02:06:16;43.00;;;35.42;;
64560;SDS011;50960;46.838;16.838;2023-12-20T02:08:43;40.67;;;33.70;;
64560;SDS011;50960;46.838;16.838;2023-12-20T02:11:10;38.33;;;33.10;;
64560;SDS011;50960;46.838;16.838;2023-12-20T02:13:36;39.63;;;34.05;;
64560;SDS011;50960;46.838;16.838;2023-12-20T02:16:02;37.22;;;33.22;;
64560;SDS011;50960;46.838;16.838;2023-12-20T02:18:29;35.83;;;31.95;;
64560;SDS011;50960;46.838;16.838;2023-12-20T02:20:55;39.65;;;32.85;;
64560;SDS011;50960;46.838;16.838;2023-12-20T02:23:22;36.42;;;32.42;;
64560;SDS011;50960;46.838;16.838;2023-12-20T02:25:48;35.85;;;31.98;;
64560;SDS011;50960;46.838;16.838;2023-12-20T02:28:14;35.78;;;31.88;;
64560;SDS011;50960;46.838;16.838;2023-12-20T02:30:41;35.00;;;31.17;;
64560;SDS011;50960;46.838;16.838;2023-12-20T02:33:08;37.15;;;31.92;;
64560;SDS011;50960;46.838;16.838;2023-12-20T02:35:37;34.80;;;30.88;;
64560;SDS011;50960;46.838;16.838;2023-12-20T02:38:04;35.50;;;31.30;;
64560;SDS011;50960;46.838;16.838;2023-12-20T02:40:30;35.75;;;31.15;;
64560;SDS011;50960;46.838;16.838;2023-12-20T02:42:56;35.13;;;30.85;;
64560;SDS011;50960;46.838;16.838;2023-12-20T02:45:22;35.63;;;31.65;;
64560;SDS011;50960;46.838;16.838;2023-12-20T02:47:49;35.28;;;31.48;;
64560;SDS011;50960;46.838;16.838;2023-12-20T02:50:16;33.85;;;30.23;;
64560;SDS011;50960;46.838;16.838;2023-12-20T02:52:44;34.92;;;31.23;;
64560;SDS011;50960;46.838;16.838;2023-12-20T02:55:11;34.13;;;30.52;;
64560;SDS011;50960;46.838;16.838;2023-12-20T02:57:37;34.00;;;30.35;;
64560;SDS011;50960;46.838;16.838;2023-12-20T03:00:10;35.58;;;30.98;;
64560;SDS011;50960;46.838;16.838;2023-12-20T03:02:36;34.92;;;30.02;;
64560;SDS011;50960;46.838;16.838;2023-12-20T03:05:03;33.72;;;30.13;;
64560;SDS011;50960;46.838;16.838;2023-12-20T03:07:29;37.80;;;31.50;;
64560;SDS011;50960;46.838;16.838;2023-12-20T03:09:56;37.83;;;32.58;;
64560;SDS011;50960;46.838;16.838;2023-12-20T03:12:22;34.45;;;30.15;;
64560;SDS011;50960;46.838;16.838;2023-12-20T03:14:49;34.17;;;30.25;;
64560;SDS011;50960;46.838;16.838;2023-12-20T03:17:15;32.85;;;28.90;;
64560;SDS011;50960;46.838;16.838;2023-12-20T03:19:41;33.25;;;29.65;;
64560;SDS011;50960;46.838;16.838;2023-12-20T03:22:07;32.17;;;28.73;;
64560;SDS011;50960;46.838;16.838;2023-12-20T03:24:34;32.90;;;28.77;;
64560;SDS011;50960;46.838;16.838;2023-12-20T03:27:00;34.45;;;29.48;;
64560;SDS011;50960;46.838;16.838;2023-12-20T03:29:26;33.83;;;30.23;;
64560;SDS011;50960;46.838;16.838;2023-12-20T03:31:52;32.50;;;28.98;;
64560;SDS011;50960;46.838;16.838;2023-12-20T03:34:18;31.92;;;28.42;;
64560;SDS011;50960;46.838;16.838;2023-12-20T03:36:45;33.08;;;27.65;;
64560;SDS011;50960;46.838;16.838;2023-12-20T03:39:13;29.95;;;25.60;;
64560;SDS011;50960;46.838;16.838;2023-12-20T03:41:39;27.58;;;23.02;;
64560;SDS011;50960;46.838;16.838;2023-12-20T03:44:05;30.60;;;24.55;;
64560;SDS011;50960;46.838;16.838;2023-12-20T03:46:32;33.70;;;25.27;;
64560;SDS011;50960;46.838;16.838;2023-12-20T03:48:58;33.08;;;25.70;;
64560;SDS011;50960;46.838;16.838;2023-12-20T03:51:24;33.80;;;24.83;;
64560;SDS011;50960;46.838;16.838;2023-12-20T03:53:50;30.58;;;24.55;;
64560;SDS011;50960;46.838;16.838;2023-12-20T03:56:16;33.97;;;26.45;;
64560;SDS011;50960;46.838;16.838;2023-12-20T03:58:43;34.75;;;26.15;;
64560;SDS011;50960;46.838;16.838;2023-12-20T04:01:09;33.33;;;25.17;;
64560;SDS011;50960;46.838;16.838;2023-12-20T04:03:39;36.65;;;25.70;;
64560;SDS011;50960;46.838;16.838;2023-12-20T04:06:06;53.42;;;26.67;;
64560;SDS011;50960;46.838;16.838;2023-12-20T04:08:32;45.45;;;27.90;;
64560;SDS011;50960;46.838;16.838;2023-12-20T04:10:58;45.10;;;31.60;;
64560;SDS011;50960;46.838;16.838;2023-12-20T04:13:24;58.75;;;36.70;;
64560;SDS011;50960;46.838;16.838;2023-12-20T04:15:51;52.92;;;34.95;;
64560;SDS011;50960;46.838;16.838;2023-12-20T04:18:17;62.53;;;36.55;;
64560;SDS011;50960;46.838;16.838;2023-12-20T04:20:44;58.67;;;34.15;;
64560;SDS011;50960;46.838;16.838;2023-12-20T04:23:10;45.78;;;29.10;;
64560;SDS011;50960;46.838;16.838;2023-12-20T04:25:36;50.50;;;29.20;;
64560;SDS011;50960;46.838;16.838;2023-12-20T04:28:03;44.03;;;28.80;;
64560;SDS011;50960;46.838;16.838;2023-12-20T04:30:29;37.92;;;27.40;;
64560;SDS011;50960;46.838;16.838;2023-12-20T04:32:55;43.53;;;27.90;;
64560;SDS011;50960;46.838;16.838;2023-12-20T04:35:22;32.10;;;24.88;;
64560;SDS011;50960;46.838;16.838;2023-12-20T04:37:49;32.47;;;25.45;;
64560;SDS011;50960;46.838;16.838;2023-12-20T04:40:15;33.33;;;23.60;;
64560;SDS011;50960;46.838;16.838;2023-12-20T04:42:41;30.05;;;22.98;;
64560;SDS011;50960;46.838;16.838;2023-12-20T04:45:08;30.13;;;22.95;;
64560;SDS011;50960;46.838;16.838;2023-12-20T04:47:34;35.40;;;24.25;;
64560;SDS011;50960;46.838;16.838;2023-12-20T04:50:01;32.60;;;26.77;;
64560;SDS011;50960;46.838;16.838;2023-12-20T04:52:27;33.08;;;24.27;;
64560;SDS011;50960;46.838;16.838;2023-12-20T04:54:54;54.20;;;26.20;;
64560;SDS011;50960;46.838;16.838;2023-12-20T04:57:21;34.63;;;26.33;;
64560;SDS011;50960;46.838;16.838;2023-12-20T04:59:48;34.03;;;26.63;;
64560;SDS011;50960;46.838;16.838;2023-12-20T05:02:14;34.92;;;26.35;;
64560;SDS011;50960;46.838;16.838;2023-12-20T05:04:41;35.50;;;26.30;;
64560;SDS011;50960;46.838;16.838;2023-12-20T05:07:07;45.13;;;27.08;;
64560;SDS011;50960;46.838;16.838;2023-12-20T05:09:34;33.17;;;26.27;;
64560;SDS011;50960;46.838;16.838;2023-12-20T05:12:00;45.95;;;25.67;;
64560;SDS011;50960;46.838;16.838;2023-12-20T05:14:27;47.90;;;25.23;;
64560;SDS011;50960;46.838;16.838;2023-12-20T05:16:53;41.58;;;25.83;;
64560;SDS011;50960;46.838;16.838;2023-12-20T05:19:19;33.53;;;25.80;;
64560;SDS011;50960;46.838;16.838;2023-12-20T05:21:46;32.13;;;24.67;;
64560;SDS011;50960;46.838;16.838;2023-12-20T05:24:12;33.17;;;25.65;;
64560;SDS011;50960;46.838;16.838;2023-12-20T05:26:39;37.17;;;26.45;;
64560;SDS011;50960;46.838;16.838;2023-12-20T05:29:05;41.40;;;27.80;;
64560;SDS011;50960;46.838;16.838;2023-12-20T05:31:32;37.95;;;28.58;;
64560;SDS011;50960;46.838;16.838;2023-12-20T05:33:58;37.08;;;28.42;;
64560;SDS011;50960;46.838;16.838;2023-12-20T05:36:25;58.15;;;29.92;;
64560;SDS011;50960;46.838;16.838;2023-12-20T05:38:52;46.75;;;30.55;;
64560;SDS011;50960;46.838;16.838;2023-12-20T05:41:18;72.75;;;30.92;;
64560;SDS011;50960;46.838;16.838;2023-12-20T05:43:47;104.32;;;32.00;;
64560;SDS011;50960;46.838;16.838;2023-12-20T05:46:13;97.28;;;32.42;;
64560;SDS011;50960;46.838;16.838;2023-12-20T05:48:40;88.55;;;32.10;;
64560;SDS011;50960;46.838;16.838;2023-12-20T05:51:06;70.97;;;31.33;;
64560;SDS011;50960;46.838;16.838;2023-12-20T05:53:33;41.42;;;29.85;;
64560;SDS011;50960;46.838;16.838;2023-12-20T05:55:59;45.40;;;29.20;;
64560;SDS011;50960;46.838;16.838;2023-12-20T05:58:26;51.00;;;30.88;;
64560;SDS011;50960;46.838;16.838;2023-12-20T06:00:52;57.60;;;30.33;;
64560;SDS011;50960;46.838;16.838;2023-12-20T06:03:19;49.78;;;29.20;;
64560;SDS011;50960;46.838;16.838;2023-12-20T06:05:45;61.05;;;34.05;;
64560;SDS011;50960;46.838;16.838;2023-12-20T06:08:12;40.60;;;30.75;;
64560;SDS011;50960;46.838;16.838;2023-12-20T06:10:38;52.67;;;32.00;;
64560;SDS011;50960;46.838;16.838;2023-12-20T06:13:05;41.55;;;29.42;;
64560;SDS011;50960;46.838;16.838;2023-12-20T06:15:32;57.47;;;29.85;;
64560;SDS011;50960;46.838;16.838;2023-12-20T06:17:59;44.53;;;29.73;;
64560;SDS011;50960;46.838;16.838;2023-12-20T06:20:26;39.33;;;29.50;;
64560;SDS011;50960;46.838;16.838;2023-12-20T06:22:52;51.03;;;31.20;;
64560;SDS011;50960;46.838;16.838;2023-12-20T06:25:19;45.38;;;30.58;;
64560;SDS011;50960;46.838;16.838;2023-12-20T06:27:45;70.38;;;30.65;;
64560;SDS011;50960;46.838;16.838;2023-12-20T06:30:12;58.25;;;32.28;;
64560;SDS011;50960;46.838;16.838;2023-12-20T06:32:38;41.10;;;28.55;;
64560;SDS011;50960;46.838;16.838;2023-12-20T06:35:05;42.60;;;29.40;;
64560;SDS011;50960;46.838;16.838;2023-12-20T06:37:32;35.22;;;26.95;;
64560;SDS011;50960;46.838;16.838;2023-12-20T06:39:58;30.73;;;23.73;;
64560;SDS011;50960;46.838;16.838;2023-12-20T06:42:25;30.58;;;24.27;;
64560;SDS011;50960;46.838;16.838;2023-12-20T06:44:51;28.42;;;22.92;;
64560;SDS011;50960;46.838;16.838;2023-12-20T06:47:17;33.40;;;24.80;;
64560;SDS011;50960;46.838;16.838;2023-12-20T06:49:44;40.33;;;25.88;;
64560;SDS011;50960;46.838;16.838;2023-12-20T06:52:10;35.40;;;26.25;;
64560;SDS011;50960;46.838;16.838;2023-12-20T06:54:37;35.10;;;25.30;;
64560;SDS011;50960;46.838;16.838;2023-12-20T06:57:03;37.03;;;25.25;;
64560;SDS011;50960;46.838;16.838;2023-12-20T06:59:30;32.60;;;24.45;;
64560;SDS011;50960;46.838;16.838;2023-12-20T07:01:56;28.38;;;23.80;;
64560;SDS011;50960;46.838;16.838;2023-12-20T07:04:23;30.98;;;23.80;;
64560;SDS011;50960;46.838;16.838;2023-12-20T07:06:49;30.48;;;23.77;;
64560;SDS011;50960;46.838;16.838;2023-12-20T07:09:22;42.97;;;25.58;;
64560;SDS011;50960;46.838;16.838;2023-12-20T07:11:49;36.92;;;25.95;;
64560;SDS011;50960;46.838;16.838;2023-12-20T07:14:15;30.13;;;24.38;;
64560;SDS011;50960;46.838;16.838;2023-12-20T07:16:42;30.55;;;24.52;;
64560;SDS011;50960;46.838;16.838;2023-12-20T07:19:08;35.80;;;24.83;;
64560;SDS011;50960;46.838;16.838;2023-12-20T07:21:35;37.92;;;26.23;;
64560;SDS011;50960;46.838;16.838;2023-12-20T07:24:01;39.92;;;26.27;;
64560;SDS011;50960;46.838;16.838;2023-12-20T07:26:28;32.08;;;24.48;;
64560;SDS011;50960;46.838;16.838;2023-12-20T07:28:54;29.67;;;24.88;;
64560;SDS011;50960;46.838;16.838;2023-12-20T07:31:21;31.23;;;23.85;;
64560;SDS011;50960;46.838;16.838;2023-12-20T07:33:49;29.70;;;23.60;;
64560;SDS011;50960;46.838;16.838;2023-12-20T07:36:15;28.90;;;23.65;;
64560;SDS011;50960;46.838;16.838;2023-12-20T07:38:42;29.17;;;25.25;;
64560;SDS011;50960;46.838;16.838;2023-12-20T07:41:10;29.40;;;24.60;;
64560;SDS011;50960;46.838;16.838;2023-12-20T07:43:36;31.67;;;25.40;;
64560;SDS011;50960;46.838;16.838;2023-12-20T07:46:06;35.63;;;25.92;;
64560;SDS011;50960;46.838;16.838;2023-12-20T07:48:33;40.58;;;25.88;;
64560;SDS011;50960;46.838;16.838;2023-12-20T07:51:00;34.63;;;27.17;;
64560;SDS011;50960;46.838;16.838;2023-12-20T07:53:26;35.17;;;24.88;;
64560;SDS011;50960;46.838;16.838;2023-12-20T07:55:53;29.77;;;25.10;;
64560;SDS011;50960;46.838;16.838;2023-12-20T07:58:20;32.38;;;26.13;;
64560;SDS011;50960;46.838;16.838;2023-12-20T08:00:46;31.13;;;24.65;;
64560;SDS011;50960;46.838;16.838;2023-12-20T08:03:12;27.80;;;23.77;;
64560;SDS011;50960;46.838;16.838;2023-12-20T08:05:39;29.50;;;24.40;;
64560;SDS011;50960;46.838;16.838;2023-12-20T08:08:07;27.65;;;23.48;;
64560;SDS011;50960;46.838;16.838;2023-12-20T08:10:35;33.85;;;27.05;;
64560;SDS011;50960;46.838;16.838;2023-12-20T08:13:02;31.02;;;24.65;;
64560;SDS011;50960;46.838;16.838;2023-12-20T08:15:29;35.13;;;24.77;;
64560;SDS011;50960;46.838;16.838;2023-12-20T08:17:56;31.27;;;24.75;;
64560;SDS011;50960;46.838;16.838;2023-12-20T08:20:24;35.15;;;25.27;;
64560;SDS011;50960;46.838;16.838;2023-12-20T08:22:51;29.48;;;24.35;;
64560;SDS011;50960;46.838;16.838;2023-12-20T08:25:18;35.15;;;25.60;;
64560;SDS011;50960;46.838;16.838;2023-12-20T08:27:45;26.83;;;23.85;;
64560;SDS011;50960;46.838;16.838;2023-12-20T08:30:13;31.90;;;24.67;;
64560;SDS011;50960;46.838;16.838;2023-12-20T08:32:42;40.70;;;24.27;;
64560;SDS011;50960;46.838;16.838;2023-12-20T08:35:09;42.72;;;24.73;;
64560;SDS011;50960;46.838;16.838;2023-12-20T08:37:36;28.05;;;22.55;;
64560;SDS011;50960;46.838;16.838;2023-12-20T08:40:04;34.30;;;25.77;;
64560;SDS011;50960;46.838;16.838;2023-12-20T08:42:31;31.98;;;24.48;;
64560;SDS011;50960;46.838;16.838;2023-12-20T08:44:58;39.05;;;25.77;;
64560;SDS011;50960;46.838;16.838;2023-12-20T08:47:26;31.75;;;25.77;;
64560;SDS011;50960;46.838;16.838;2023-12-20T08:49:53;32.80;;;25.77;;
64560;SDS011;50960;46.838;16.838;2023-12-20T08:52:24;33.20;;;27.00;;
64560;SDS011;50960;46.838;16.838;2023-12-20T08:54:53;32.30;;;26.55;;
64560;SDS011;50960;46.838;16.838;2023-12-20T08:57:20;34.40;;;27.63;;
64560;SDS011;50960;46.838;16.838;2023-12-20T08:59:49;34.10;;;28.08;;
64560;SDS011;50960;46.838;16.838;2023-12-20T09:02:16;36.17;;;26.85;;
64560;SDS011;50960;46.838;16.838;2023-12-20T09:04:44;38.22;;;29.45;;
64560;SDS011;50960;46.838;16.838;2023-12-20T09:07:23;33.70;;;26.33;;
64560;SDS011;50960;46.838;16.838;2023-12-20T09:09:51;40.30;;;27.13;;
64560;SDS011;50960;46.838;16.838;2023-12-20T09:12:18;36.33;;;26.58;;
64560;SDS011;50960;46.838;16.838;2023-12-20T09:14:46;36.58;;;26.30;;
64560;SDS011;50960;46.838;16.838;2023-12-20T09:17:13;37.60;;;27.42;;
64560;SDS011;50960;46.838;16.838;2023-12-20T09:19:40;36.13;;;26.42;;
64560;SDS011;50960;46.838;16.838;2023-12-20T09:22:07;33.55;;;24.95;;
64560;SDS011;50960;46.838;16.838;2023-12-20T09:24:34;32.40;;;25.88;;
64560;SDS011;50960;46.838;16.838;2023-12-20T09:27:01;34.45;;;27.48;;
64560;SDS011;50960;46.838;16.838;2023-12-20T09:29:28;45.15;;;30.05;;
64560;SDS011;50960;46.838;16.838;2023-12-20T09:31:54;35.75;;;29.13;;
64560;SDS011;50960;46.838;16.838;2023-12-20T09:34:21;47.70;;;31.40;;
64560;SDS011;50960;46.838;16.838;2023-12-20T09:36:47;47.47;;;31.65;;
64560;SDS011;50960;46.838;16.838;2023-12-20T09:39:14;40.05;;;31.25;;
64560;SDS011;50960;46.838;16.838;2023-12-20T09:41:43;41.80;;;31.77;;
64560;SDS011;50960;46.838;16.838;2023-12-20T09:44:13;38.10;;;29.05;;
64560;SDS011;50960;46.838;16.838;2023-12-20T09:46:43;38.13;;;30.42;;
64560;SDS011;50960;46.838;16.838;2023-12-20T09:49:15;34.90;;;28.60;;
64560;SDS011;50960;46.838;16.838;2023-12-20T09:51:46;38.47;;;30.90;;
64560;SDS011;50960;46.838;16.838;2023-12-20T09:54:16;39.28;;;30.40;;
64560;SDS011;50960;46.838;16.838;2023-12-20T09:56:44;40.05;;;31.33;;
64560;SDS011;50960;46.838;16.838;2023-12-20T09:59:10;40.13;;;32.10;;
64560;SDS011;50960;46.838;16.838;2023-12-20T10:01:38;39.15;;;31.80;;
64560;SDS011;50960;46.838;16.838;2023-12-20T10:04:06;39.45;;;31.70;;
64560;SDS011;50960;46.838;16.838;2023-12-20T10:06:40;39.60;;;32.03;;
64560;SDS011;50960;46.838;16.838;2023-12-20T10:09:09;42.15;;;33.40;;
64560;SDS011;50960;46.838;16.838;2023-12-20T10:11:36;38.03;;;30.73;;
64560;SDS011;50960;46.838;16.838;2023-12-20T10:14:04;38.60;;;31.40;;
64560;SDS011;50960;46.838;16.838;2023-12-20T10:16:31;44.05;;;34.50;;
64560;SDS011;50960;46.838;16.838;2023-12-20T10:18:58;42.50;;;32.72;;
64560;SDS011;50960;46.838;16.838;2023-12-20T10:21:26;45.72;;;33.88;;
64560;SDS011;50960;46.838;16.838;2023-12-20T10:23:53;40.17;;;32.63;;
64560;SDS011;50960;46.838;16.838;2023-12-20T10:26:21;44.08;;;32.35;;
64560;SDS011;50960;46.838;16.838;2023-12-20T10:28:51;41.55;;;32.08;;
64560;SDS011;50960;46.838;16.838;2023-12-20T10:31:29;47.35;;;33.15;;
64560;SDS011;50960;46.838;16.838;2023-12-20T10:33:57;49.70;;;33.92;;
64560;SDS011;50960;46.838;16.838;2023-12-20T10:36:26;42.78;;;32.92;;
64560;SDS011;50960;46.838;16.838;2023-12-20T10:38:57;43.35;;;33.08;;
64560;SDS011;50960;46.838;16.838;2023-12-20T10:41:26;41.97;;;32.72;;
64560;SDS011;50960;46.838;16.838;2023-12-20T10:44:03;46.70;;;34.78;;
64560;SDS011;50960;46.838;16.838;2023-12-20T10:46:33;43.55;;;32.30;;
64560;SDS011;50960;46.838;16.838;2023-12-20T10:49:02;43.17;;;33.00;;
64560;SDS011;50960;46.838;16.838;2023-12-20T10:51:30;43.42;;;33.40;;
64560;SDS011;50960;46.838;16.838;2023-12-20T10:53:59;44.95;;;34.10;;
64560;SDS011;50960;46.838;16.838;2023-12-20T10:56:25;40.15;;;31.55;;
64560;SDS011;50960;46.838;16.838;2023-12-20T10:58:58;43.38;;;33.38;;
64560;SDS011;50960;46.838;16.838;2023-12-20T11:01:31;43.08;;;34.08;;
64560;SDS011;50960;46.838;16.838;2023-12-20T11:03:57;39.90;;;31.98;;
64560;SDS011;50960;46.838;16.838;2023-12-20T11:06:43;42.15;;;32.80;;
64560;SDS011;50960;46.838;16.838;2023-12-20T11:14:47;46.20;;;35.97;;
64560;SDS011;50960;46.838;16.838;2023-12-20T11:17:21;50.75;;;37.03;;
64560;SDS011;50960;46.838;16.838;2023-12-20T11:22:26;47.47;;;36.13;;
64560;SDS011;50960;46.838;16.838;2023-12-20T11:25:09;49.70;;;37.00;;
64560;SDS011;50960;46.838;16.838;2023-12-20T11:27:37;49.85;;;36.97;;
64560;SDS011;50960;46.838;16.838;2023-12-20T11:30:07;49.80;;;37.50;;
64560;SDS011;50960;46.838;16.838;2023-12-20T11:32:35;51.20;;;37.55;;
64560;SDS011;50960;46.838;16.838;2023-12-20T11:37:35;49.50;;;37.63;;
64560;SDS011;50960;46.838;16.838;2023-12-20T11:42:37;51.25;;;38.67;;
64560;SDS011;50960;46.838;16.838;2023-12-20T11:45:05;48.65;;;36.25;;
64560;SDS011;50960;46.838;16.838;2023-12-20T11:47:34;50.97;;;38.47;;
64560;SDS011;50960;46.838;16.838;2023-12-20T11:50:01;48.33;;;36.70;;
64560;SDS011;50960;46.838;16.838;2023-12-20T11:52:29;50.55;;;37.45;;
64560;SDS011;50960;46.838;16.838;2023-12-20T11:54:57;51.92;;;37.40;;
64560;SDS011;50960;46.838;16.838;2023-12-20T11:57:23;46.78;;;36.05;;
64560;SDS011;50960;46.838;16.838;2023-12-20T11:59:50;50.55;;;37.95;;
64560;SDS011;50960;46.838;16.838;2023-12-20T12:02:16;52.63;;;38.47;;
64560;SDS011;50960;46.838;16.838;2023-12-20T12:04:43;51.65;;;38.63;;
64560;SDS011;50960;46.838;16.838;2023-12-20T12:07:09;54.67;;;40.05;;
64560;SDS011;50960;46.838;16.838;2023-12-20T12:09:35;54.25;;;38.67;;
64560;SDS011;50960;46.838;16.838;2023-12-20T12:12:02;55.70;;;39.40;;
64560;SDS011;50960;46.838;16.838;2023-12-20T12:14:28;59.38;;;42.08;;
64560;SDS011;50960;46.838;16.838;2023-12-20T12:16:55;53.22;;;39.78;;
64560;SDS011;50960;46.838;16.838;2023-12-20T12:19:24;50.63;;;37.85;;
64560;SDS011;50960;46.838;16.838;2023-12-20T12:22:11;51.17;;;38.50;;
64560;SDS011;50960;46.838;16.838;2023-12-20T12:24:40;55.38;;;39.78;;
64560;SDS011;50960;46.838;16.838;2023-12-20T12:27:06;54.72;;;39.80;;
64560;SDS011;50960;46.838;16.838;2023-12-20T12:29:34;58.50;;;41.55;;
64560;SDS011;50960;46.838;16.838;2023-12-20T12:32:00;57.22;;;40.42;;
64560;SDS011;50960;46.838;16.838;2023-12-20T12:34:30;57.92;;;41.88;;
64560;SDS011;50960;46.838;16.838;2023-12-20T12:36:56;59.00;;;41.40;;
64560;SDS011;50960;46.838;16.838;2023-12-20T12:39:23;60.70;;;43.60;;
64560;SDS011;50960;46.838;16.838;2023-12-20T12:41:53;59.60;;;41.97;;
64560;SDS011;50960;46.838;16.838;2023-12-20T12:44:19;54.30;;;40.70;;
64560;SDS011;50960;46.838;16.838;2023-12-20T12:46:48;58.22;;;39.97;;
64560;SDS011;50960;46.838;16.838;2023-12-20T12:49:22;55.38;;;39.50;;
64560;SDS011;50960;46.838;16.838;2023-12-20T12:51:48;53.60;;;39.25;;
64560;SDS011;50960;46.838;16.838;2023-12-20T12:54:15;54.22;;;39.25;;
64560;SDS011;50960;46.838;16.838;2023-12-20T12:56:43;55.67;;;39.25;;
64560;SDS011;50960;46.838;16.838;2023-12-20T12:59:10;52.58;;;38.42;;
64560;SDS011;50960;46.838;16.838;2023-12-20T13:01:37;55.65;;;39.35;;
64560;SDS011;50960;46.838;16.838;2023-12-20T13:04:04;52.60;;;38.53;;
64560;SDS011;50960;46.838;16.838;2023-12-20T13:06:38;52.35;;;38.53;;
64560;SDS011;50960;46.838;16.838;2023-12-20T13:09:06;52.78;;;39.17;;
64560;SDS011;50960;46.838;16.838;2023-12-20T13:11:35;52.97;;;39.13;;
64560;SDS011;50960;46.838;16.838;2023-12-20T13:14:01;49.45;;;38.03;;
64560;SDS011;50960;46.838;16.838;2023-12-20T13:16:29;48.00;;;37.17;;
64560;SDS011;50960;46.838;16.838;2023-12-20T13:18:56;49.95;;;38.05;;
64560;SDS011;50960;46.838;16.838;2023-12-20T13:21:22;51.17;;;39.58;;
64560;SDS011;50960;46.838;16.838;2023-12-20T13:23:48;49.33;;;36.90;;
64560;SDS011;50960;46.838;16.838;2023-12-20T13:26:14;48.03;;;36.55;;
64560;SDS011;50960;46.838;16.838;2023-12-20T13:28:41;51.15;;;37.15;;
64560;SDS011;50960;46.838;16.838;2023-12-20T13:31:07;45.92;;;36.15;;
64560;SDS011;50960;46.838;16.838;2023-12-20T13:33:33;49.30;;;37.63;;
64560;SDS011;50960;46.838;16.838;2023-12-20T13:36:00;45.50;;;36.05;;
64560;SDS011;50960;46.838;16.838;2023-12-20T13:38:26;47.30;;;36.75;;
64560;SDS011;50960;46.838;16.838;2023-12-20T13:40:52;49.80;;;37.00;;
64560;SDS011;50960;46.838;16.838;2023-12-20T13:43:18;50.60;;;38.00;;
64560;SDS011;50960;46.838;16.838;2023-12-20T13:45:47;49.28;;;38.33;;
64560;SDS011;50960;46.838;16.838;2023-12-20T13:48:14;49.65;;;38.30;;
64560;SDS011;50960;46.838;16.838;2023-12-20T13:50:40;48.35;;;38.10;;
64560;SDS011;50960;46.838;16.838;2023-12-20T13:53:06;49.10;;;38.05;;
64560;SDS011;50960;46.838;16.838;2023-12-20T13:55:33;52.47;;;39.22;;
64560;SDS011;50960;46.838;16.838;2023-12-20T13:57:59;51.92;;;38.58;;
64560;SDS011;50960;46.838;16.838;2023-12-20T14:00:25;52.88;;;39.67;;
64560;SDS011;50960;46.838;16.838;2023-12-20T14:02:53;53.40;;;40.88;;
64560;SDS011;50960;46.838;16.838;2023-12-20T14:05:19;56.85;;;41.75;;
64560;SDS011;50960;46.838;16.838;2023-12-20T14:07:45;54.67;;;41.78;;
64560;SDS011;50960;46.838;16.838;2023-12-20T14:10:12;54.95;;;41.28;;
64560;SDS011;50960;46.838;16.838;2023-12-20T14:12:39;55.00;;;40.50;;
64560;SDS011;50960;46.838;16.838;2023-12-20T14:15:06;51.88;;;39.60;;
64560;SDS011;50960;46.838;16.838;2023-12-20T14:17:40;53.80;;;41.50;;
64560;SDS011;50960;46.838;16.838;2023-12-20T14:20:08;52.25;;;40.03;;
64560;SDS011;50960;46.838;16.838;2023-12-20T14:22:35;53.15;;;40.35;;